sensor_id;sensor_type;location;lat;lon;timestamp;P1;durP1;ratioP1;P2;durP2;ratioP2
7621;SDS011;3852;52.284;8.032;2022-10-28T00:01:00;10.00;;;5.20;;
7621;SDS011;3852;52.284;8.032;2022-10-28T00:03:38;6.83;;;5.40;;
7621;SDS011;3852;52.284;8.032;2022-10-28T00:06:08;5.73;;;4.83;;
7621;SDS011;3852;52.284;8.032;2022-10-28T00:08:40;9.43;;;5.20;;
7621;SDS011;3852;52.284;8.032;2022-10-28T00:11:11;11.10;;;5.20;;
7621;SDS011;3852;52.284;8.032;2022-10-28T00:13:46;7.93;;;5.10;;
7621;SDS011;3852;52.284;8.032;2022-10-28T00:16:14;7.53;;;5.47;;
7621;SDS011;3852;52.284;8.032;2022-10-28T00:18:45;7.00;;;5.23;;
7621;SDS011;3852;52.284;8.032;2022-10-28T00:21:13;8.13;;;5.00;;
7621;SDS011;3852;52.284;8.032;2022-10-28T00:23:42;6.23;;;4.97;;
7621;SDS011;3852;52.284;8.032;2022-10-28T00:26:11;7.17;;;5.00;;
7621;SDS011;3852;52.284;8.032;2022-10-28T00:28:47;8.53;;;4.97;;
7621;SDS011;3852;52.284;8.032;2022-10-28T00:31:19;6.20;;;5.43;;
7621;SDS011;3852;52.284;8.032;2022-10-28T00:33:48;7.53;;;4.93;;
7621;SDS011;3852;52.284;8.032;2022-10-28T00:36:24;9.90;;;5.93;;
7621;SDS011;3852;52.284;8.032;2022-10-28T00:38:59;7.67;;;5.77;;
7621;SDS011;3852;52.284;8.032;2022-10-28T00:41:34;8.30;;;5.23;;
7621;SDS011;3852;52.284;8.032;2022-10-28T00:44:38;8.17;;;5.53;;
7621;SDS011;3852;52.284;8.032;2022-10-28T00:50:23;11.17;;;5.70;;
7621;SDS011;3852;52.284;8.032;2022-10-28T00:53:36;5.67;;;4.80;;
7621;SDS011;3852;52.284;8.032;2022-10-28T00:55:58;10.07;;;5.83;;
7621;SDS011;3852;52.284;8.032;2022-10-28T00:58:26;5.73;;;4.87;;
7621;SDS011;3852;52.284;8.032;2022-10-28T01:00:53;8.50;;;5.30;;
7621;SDS011;3852;52.284;8.032;2022-10-28T01:03:20;6.23;;;4.83;;
7621;SDS011;3852;52.284;8.032;2022-10-28T01:05:46;8.57;;;5.07;;
7621;SDS011;3852;52.284;8.032;2022-10-28T01:08:13;10.43;;;5.50;;
7621;SDS011;3852;52.284;8.032;2022-10-28T01:22:19;6.87;;;4.87;;
7621;SDS011;3852;52.284;8.032;2022-10-28T01:34:09;9.83;;;5.07;;
7621;SDS011;3852;52.284;8.032;2022-10-28T01:47:45;7.80;;;5.50;;
7621;SDS011;3852;52.284;8.032;2022-10-28T01:53:16;10.47;;;4.60;;
7621;SDS011;3852;52.284;8.032;2022-10-28T01:55:46;9.93;;;5.10;;
7621;SDS011;3852;52.284;8.032;2022-10-28T01:58:18;9.07;;;4.87;;
7621;SDS011;3852;52.284;8.032;2022-10-28T02:00:48;9.37;;;5.20;;
7621;SDS011;3852;52.284;8.032;2022-10-28T02:03:15;6.93;;;4.70;;
7621;SDS011;3852;52.284;8.032;2022-10-28T02:05:42;7.70;;;4.73;;
7621;SDS011;3852;52.284;8.032;2022-10-28T02:10:51;6.43;;;4.63;;
7621;SDS011;3852;52.284;8.032;2022-10-28T02:13:57;9.53;;;4.80;;
7621;SDS011;3852;52.284;8.032;2022-10-28T02:17:30;7.60;;;4.30;;
7621;SDS011;3852;52.284;8.032;2022-10-28T02:22:48;8.53;;;4.67;;
7621;SDS011;3852;52.284;8.032;2022-10-28T02:25:20;9.03;;;4.70;;
7621;SDS011;3852;52.284;8.032;2022-10-28T02:27:57;9.87;;;5.27;;
7621;SDS011;3852;52.284;8.032;2022-10-28T02:30:32;8.67;;;4.70;;
7621;SDS011;3852;52.284;8.032;2022-10-28T02:33:14;8.30;;;4.80;;
7621;SDS011;3852;52.284;8.032;2022-10-28T02:35:48;7.43;;;4.67;;
7621;SDS011;3852;52.284;8.032;2022-10-28T02:38:33;9.60;;;4.73;;
7621;SDS011;3852;52.284;8.032;2022-10-28T02:41:08;7.57;;;4.53;;
7621;SDS011;3852;52.284;8.032;2022-10-28T02:44:02;5.97;;;4.80;;
7621;SDS011;3852;52.284;8.032;2022-10-28T02:46:35;7.33;;;4.47;;
7621;SDS011;3852;52.284;8.032;2022-10-28T02:49:06;5.77;;;5.00;;
7621;SDS011;3852;52.284;8.032;2022-10-28T02:51:40;6.87;;;4.67;;
7621;SDS011;3852;52.284;8.032;2022-10-28T02:54:38;9.30;;;4.70;;
7621;SDS011;3852;52.284;8.032;2022-10-28T02:57:14;7.67;;;4.47;;
7621;SDS011;3852;52.284;8.032;2022-10-28T02:59:52;11.90;;;5.00;;
7621;SDS011;3852;52.284;8.032;2022-10-28T03:02:24;9.43;;;4.93;;
7621;SDS011;3852;52.284;8.032;2022-10-28T03:04:50;8.07;;;4.83;;
7621;SDS011;3852;52.284;8.032;2022-10-28T03:07:16;8.77;;;5.03;;
7621;SDS011;3852;52.284;8.032;2022-10-28T03:09:42;5.50;;;4.50;;
7621;SDS011;3852;52.284;8.032;2022-10-28T03:12:07;7.23;;;4.37;;
7621;SDS011;3852;52.284;8.032;2022-10-28T03:14:33;9.40;;;4.90;;
7621;SDS011;3852;52.284;8.032;2022-10-28T03:16:59;8.50;;;4.57;;
7621;SDS011;3852;52.284;8.032;2022-10-28T03:19:25;8.47;;;5.33;;
7621;SDS011;3852;52.284;8.032;2022-10-28T03:21:51;6.07;;;4.63;;
7621;SDS011;3852;52.284;8.032;2022-10-28T03:24:16;6.23;;;4.90;;
7621;SDS011;3852;52.284;8.032;2022-10-28T03:26:42;9.10;;;4.73;;
7621;SDS011;3852;52.284;8.032;2022-10-28T03:29:08;6.10;;;4.87;;
7621;SDS011;3852;52.284;8.032;2022-10-28T03:31:34;10.20;;;5.10;;
7621;SDS011;3852;52.284;8.032;2022-10-28T03:33:59;8.30;;;4.80;;
7621;SDS011;3852;52.284;8.032;2022-10-28T03:36:25;6.47;;;4.77;;
7621;SDS011;3852;52.284;8.032;2022-10-28T03:38:51;7.17;;;4.23;;
7621;SDS011;3852;52.284;8.032;2022-10-28T03:41:17;6.80;;;4.40;;
7621;SDS011;3852;52.284;8.032;2022-10-28T03:43:43;6.97;;;4.50;;
7621;SDS011;3852;52.284;8.032;2022-10-28T03:46:08;6.77;;;4.90;;
7621;SDS011;3852;52.284;8.032;2022-10-28T03:48:34;7.20;;;4.80;;
7621;SDS011;3852;52.284;8.032;2022-10-28T03:51:00;9.20;;;4.73;;
7621;SDS011;3852;52.284;8.032;2022-10-28T03:53:26;9.37;;;4.90;;
7621;SDS011;3852;52.284;8.032;2022-10-28T03:55:52;7.57;;;4.60;;
7621;SDS011;3852;52.284;8.032;2022-10-28T03:58:20;6.00;;;4.90;;
7621;SDS011;3852;52.284;8.032;2022-10-28T04:00:50;7.60;;;5.13;;
7621;SDS011;3852;52.284;8.032;2022-10-28T04:03:17;9.03;;;4.70;;
7621;SDS011;3852;52.284;8.032;2022-10-28T04:05:45;7.80;;;4.67;;
7621;SDS011;3852;52.284;8.032;2022-10-28T04:08:14;10.63;;;5.27;;
7621;SDS011;3852;52.284;8.032;2022-10-28T04:10:43;8.70;;;5.20;;
7621;SDS011;3852;52.284;8.032;2022-10-28T04:13:10;7.00;;;4.53;;
7621;SDS011;3852;52.284;8.032;2022-10-28T04:15:36;7.30;;;4.60;;
7621;SDS011;3852;52.284;8.032;2022-10-28T04:18:02;8.10;;;4.93;;
7621;SDS011;3852;52.284;8.032;2022-10-28T04:20:29;9.93;;;5.60;;
7621;SDS011;3852;52.284;8.032;2022-10-28T04:22:55;8.23;;;5.27;;
7621;SDS011;3852;52.284;8.032;2022-10-28T04:25:22;10.73;;;5.07;;
7621;SDS011;3852;52.284;8.032;2022-10-28T04:27:49;5.23;;;4.33;;
7621;SDS011;3852;52.284;8.032;2022-10-28T04:30:15;6.43;;;4.97;;
7621;SDS011;3852;52.284;8.032;2022-10-28T04:32:41;10.37;;;4.90;;
7621;SDS011;3852;52.284;8.032;2022-10-28T04:35:08;8.07;;;4.83;;
7621;SDS011;3852;52.284;8.032;2022-10-28T04:37:36;7.90;;;4.80;;
7621;SDS011;3852;52.284;8.032;2022-10-28T04:40:03;8.03;;;4.93;;
7621;SDS011;3852;52.284;8.032;2022-10-28T04:42:30;8.63;;;4.53;;
7621;SDS011;3852;52.284;8.032;2022-10-28T04:44:55;7.80;;;4.80;;
7621;SDS011;3852;52.284;8.032;2022-10-28T04:47:21;7.17;;;4.70;;
7621;SDS011;3852;52.284;8.032;2022-10-28T04:49:47;6.33;;;4.77;;
7621;SDS011;3852;52.284;8.032;2022-10-28T04:52:13;8.47;;;4.70;;
7621;SDS011;3852;52.284;8.032;2022-10-28T04:54:39;6.50;;;4.73;;
7621;SDS011;3852;52.284;8.032;2022-10-28T04:57:07;8.30;;;4.50;;
7621;SDS011;3852;52.284;8.032;2022-10-28T04:59:33;11.23;;;4.60;;
7621;SDS011;3852;52.284;8.032;2022-10-28T05:01:58;6.37;;;4.63;;
7621;SDS011;3852;52.284;8.032;2022-10-28T05:04:24;7.40;;;4.37;;
7621;SDS011;3852;52.284;8.032;2022-10-28T05:06:50;8.70;;;4.83;;
7621;SDS011;3852;52.284;8.032;2022-10-28T05:09:16;7.23;;;4.47;;
7621;SDS011;3852;52.284;8.032;2022-10-28T05:11:42;6.27;;;4.60;;
7621;SDS011;3852;52.284;8.032;2022-10-28T05:14:07;6.50;;;4.90;;
7621;SDS011;3852;52.284;8.032;2022-10-28T05:16:33;6.03;;;4.40;;
7621;SDS011;3852;52.284;8.032;2022-10-28T05:18:59;8.00;;;4.77;;
7621;SDS011;3852;52.284;8.032;2022-10-28T05:21:25;7.87;;;4.90;;
7621;SDS011;3852;52.284;8.032;2022-10-28T05:23:51;10.87;;;5.03;;
7621;SDS011;3852;52.284;8.032;2022-10-28T05:26:17;10.20;;;5.30;;
7621;SDS011;3852;52.284;8.032;2022-10-28T05:28:43;8.17;;;4.90;;
7621;SDS011;3852;52.284;8.032;2022-10-28T05:31:13;7.70;;;5.20;;
7621;SDS011;3852;52.284;8.032;2022-10-28T05:33:38;6.33;;;5.00;;
7621;SDS011;3852;52.284;8.032;2022-10-28T05:36:04;11.00;;;4.97;;
7621;SDS011;3852;52.284;8.032;2022-10-28T05:38:30;7.80;;;4.90;;
7621;SDS011;3852;52.284;8.032;2022-10-28T05:40:56;6.47;;;5.00;;
7621;SDS011;3852;52.284;8.032;2022-10-28T05:43:22;7.23;;;4.40;;
7621;SDS011;3852;52.284;8.032;2022-10-28T05:45:51;7.50;;;5.27;;
7621;SDS011;3852;52.284;8.032;2022-10-28T05:48:21;8.03;;;5.23;;
7621;SDS011;3852;52.284;8.032;2022-10-28T05:50:48;7.67;;;4.77;;
7621;SDS011;3852;52.284;8.032;2022-10-28T05:53:14;8.47;;;4.83;;
7621;SDS011;3852;52.284;8.032;2022-10-28T05:55:40;7.87;;;4.83;;
7621;SDS011;3852;52.284;8.032;2022-10-28T05:58:06;8.00;;;4.80;;
7621;SDS011;3852;52.284;8.032;2022-10-28T06:00:31;7.00;;;5.60;;
7621;SDS011;3852;52.284;8.032;2022-10-28T06:03:04;5.57;;;4.80;;
7621;SDS011;3852;52.284;8.032;2022-10-28T06:05:36;7.47;;;4.80;;
7621;SDS011;3852;52.284;8.032;2022-10-28T06:08:04;7.23;;;5.10;;
7621;SDS011;3852;52.284;8.032;2022-10-28T06:10:30;6.90;;;5.20;;
7621;SDS011;3852;52.284;8.032;2022-10-28T06:12:56;7.57;;;4.70;;
7621;SDS011;3852;52.284;8.032;2022-10-28T06:15:22;10.07;;;5.43;;
7621;SDS011;3852;52.284;8.032;2022-10-28T06:17:48;11.13;;;5.80;;
7621;SDS011;3852;52.284;8.032;2022-10-28T06:20:15;6.03;;;4.37;;
7621;SDS011;3852;52.284;8.032;2022-10-28T06:22:48;7.60;;;4.83;;
7621;SDS011;3852;52.284;8.032;2022-10-28T06:25:19;7.13;;;4.30;;
7621;SDS011;3852;52.284;8.032;2022-10-28T06:27:53;7.93;;;5.10;;
7621;SDS011;3852;52.284;8.032;2022-10-28T06:30:21;10.37;;;4.40;;
7621;SDS011;3852;52.284;8.032;2022-10-28T06:32:48;7.43;;;4.67;;
7621;SDS011;3852;52.284;8.032;2022-10-28T06:35:14;6.43;;;4.73;;
7621;SDS011;3852;52.284;8.032;2022-10-28T06:37:40;10.60;;;4.63;;
7621;SDS011;3852;52.284;8.032;2022-10-28T06:40:06;9.03;;;4.57;;
7621;SDS011;3852;52.284;8.032;2022-10-28T06:42:33;5.50;;;4.60;;
7621;SDS011;3852;52.284;8.032;2022-10-28T06:44:58;9.17;;;4.50;;
7621;SDS011;3852;52.284;8.032;2022-10-28T06:47:24;8.37;;;4.50;;
7621;SDS011;3852;52.284;8.032;2022-10-28T06:49:50;8.17;;;4.33;;
7621;SDS011;3852;52.284;8.032;2022-10-28T06:52:16;7.37;;;4.50;;
7621;SDS011;3852;52.284;8.032;2022-10-28T06:54:41;9.83;;;4.60;;
7621;SDS011;3852;52.284;8.032;2022-10-28T06:57:08;7.57;;;4.70;;
7621;SDS011;3852;52.284;8.032;2022-10-28T06:59:37;6.50;;;4.27;;
7621;SDS011;3852;52.284;8.032;2022-10-28T07:02:03;9.00;;;4.27;;
7621;SDS011;3852;52.284;8.032;2022-10-28T07:04:28;9.17;;;4.50;;
7621;SDS011;3852;52.284;8.032;2022-10-28T07:06:55;6.33;;;4.40;;
7621;SDS011;3852;52.284;8.032;2022-10-28T07:09:21;8.67;;;4.30;;
7621;SDS011;3852;52.284;8.032;2022-10-28T07:11:47;9.57;;;4.60;;
7621;SDS011;3852;52.284;8.032;2022-10-28T07:14:13;10.53;;;4.57;;
7621;SDS011;3852;52.284;8.032;2022-10-28T07:16:39;8.10;;;4.10;;
7621;SDS011;3852;52.284;8.032;2022-10-28T07:19:06;8.00;;;4.47;;
7621;SDS011;3852;52.284;8.032;2022-10-28T07:21:32;9.40;;;4.80;;
7621;SDS011;3852;52.284;8.032;2022-10-28T07:23:59;7.93;;;4.07;;
7621;SDS011;3852;52.284;8.032;2022-10-28T07:26:25;7.60;;;4.47;;
7621;SDS011;3852;52.284;8.032;2022-10-28T07:28:51;6.97;;;3.50;;
7621;SDS011;3852;52.284;8.032;2022-10-28T07:31:17;8.17;;;4.10;;
7621;SDS011;3852;52.284;8.032;2022-10-28T07:33:43;9.43;;;3.80;;
7621;SDS011;3852;52.284;8.032;2022-10-28T07:36:12;7.30;;;3.97;;
7621;SDS011;3852;52.284;8.032;2022-10-28T07:38:38;10.93;;;3.63;;
7621;SDS011;3852;52.284;8.032;2022-10-28T07:41:05;8.57;;;4.03;;
7621;SDS011;3852;52.284;8.032;2022-10-28T07:43:36;6.40;;;4.07;;
7621;SDS011;3852;52.284;8.032;2022-10-28T07:46:04;11.03;;;4.10;;
7621;SDS011;3852;52.284;8.032;2022-10-28T07:48:31;8.37;;;3.43;;
7621;SDS011;3852;52.284;8.032;2022-10-28T07:51:02;8.37;;;4.07;;
7621;SDS011;3852;52.284;8.032;2022-10-28T07:53:30;7.23;;;4.10;;
7621;SDS011;3852;52.284;8.032;2022-10-28T07:55:56;7.47;;;3.47;;
7621;SDS011;3852;52.284;8.032;2022-10-28T07:58:25;10.97;;;3.87;;
7621;SDS011;3852;52.284;8.032;2022-10-28T08:00:51;10.00;;;3.53;;
7621;SDS011;3852;52.284;8.032;2022-10-28T08:03:17;7.67;;;3.87;;
7621;SDS011;3852;52.284;8.032;2022-10-28T08:05:43;10.33;;;3.30;;
7621;SDS011;3852;52.284;8.032;2022-10-28T08:08:09;7.27;;;3.50;;
7621;SDS011;3852;52.284;8.032;2022-10-28T08:10:38;7.23;;;3.53;;
7621;SDS011;3852;52.284;8.032;2022-10-28T08:13:04;8.60;;;3.90;;
7621;SDS011;3852;52.284;8.032;2022-10-28T08:15:31;7.83;;;3.57;;
7621;SDS011;3852;52.284;8.032;2022-10-28T08:17:57;7.83;;;3.67;;
7621;SDS011;3852;52.284;8.032;2022-10-28T08:20:22;10.93;;;3.47;;
7621;SDS011;3852;52.284;8.032;2022-10-28T08:22:48;8.57;;;3.33;;
7621;SDS011;3852;52.284;8.032;2022-10-28T08:25:14;8.00;;;3.53;;
7621;SDS011;3852;52.284;8.032;2022-10-28T08:27:40;11.57;;;4.07;;
7621;SDS011;3852;52.284;8.032;2022-10-28T08:30:06;10.27;;;4.07;;
7621;SDS011;3852;52.284;8.032;2022-10-28T08:32:34;6.40;;;3.77;;
7621;SDS011;3852;52.284;8.032;2022-10-28T08:35:00;8.60;;;3.90;;
7621;SDS011;3852;52.284;8.032;2022-10-28T08:37:25;7.73;;;3.23;;
7621;SDS011;3852;52.284;8.032;2022-10-28T08:39:51;5.10;;;3.70;;
7621;SDS011;3852;52.284;8.032;2022-10-28T08:45:02;9.17;;;3.97;;
7621;SDS011;3852;52.284;8.032;2022-10-28T08:51:15;10.23;;;3.60;;
7621;SDS011;3852;52.284;8.032;2022-10-28T08:53:56;11.50;;;3.50;;
7621;SDS011;3852;52.284;8.032;2022-10-28T08:56:31;7.10;;;3.43;;
7621;SDS011;3852;52.284;8.032;2022-10-28T08:59:03;9.23;;;3.93;;
7621;SDS011;3852;52.284;8.032;2022-10-28T09:01:39;11.17;;;3.67;;
7621;SDS011;3852;52.284;8.032;2022-10-28T09:04:15;9.20;;;3.53;;
7621;SDS011;3852;52.284;8.032;2022-10-28T09:07:03;8.23;;;3.70;;
7621;SDS011;3852;52.284;8.032;2022-10-28T09:09:30;8.13;;;3.77;;
7621;SDS011;3852;52.284;8.032;2022-10-28T09:17:54;7.40;;;3.70;;
7621;SDS011;3852;52.284;8.032;2022-10-28T09:34:50;11.87;;;3.70;;
7621;SDS011;3852;52.284;8.032;2022-10-28T09:37:26;11.87;;;4.27;;
7621;SDS011;3852;52.284;8.032;2022-10-28T09:45:39;8.73;;;3.40;;
7621;SDS011;3852;52.284;8.032;2022-10-28T09:48:15;8.23;;;3.60;;
7621;SDS011;3852;52.284;8.032;2022-10-28T09:50:56;10.50;;;4.00;;
7621;SDS011;3852;52.284;8.032;2022-10-28T09:56:13;11.20;;;3.80;;
7621;SDS011;3852;52.284;8.032;2022-10-28T09:58:40;9.53;;;3.60;;
7621;SDS011;3852;52.284;8.032;2022-10-28T10:01:13;11.77;;;3.70;;
7621;SDS011;3852;52.284;8.032;2022-10-28T10:03:42;7.53;;;3.77;;
7621;SDS011;3852;52.284;8.032;2022-10-28T10:06:17;8.33;;;3.57;;
7621;SDS011;3852;52.284;8.032;2022-10-28T10:09:03;9.40;;;3.90;;
7621;SDS011;3852;52.284;8.032;2022-10-28T10:11:37;7.57;;;3.90;;
7621;SDS011;3852;52.284;8.032;2022-10-28T10:14:08;8.27;;;3.77;;
7621;SDS011;3852;52.284;8.032;2022-10-28T10:16:44;11.23;;;3.93;;
7621;SDS011;3852;52.284;8.032;2022-10-28T10:19:17;8.93;;;3.80;;
7621;SDS011;3852;52.284;8.032;2022-10-28T10:24:33;8.60;;;3.83;;
7621;SDS011;3852;52.284;8.032;2022-10-28T10:27:01;8.50;;;3.40;;
7621;SDS011;3852;52.284;8.032;2022-10-28T10:29:45;11.53;;;4.50;;
7621;SDS011;3852;52.284;8.032;2022-10-28T10:32:34;9.03;;;4.23;;
7621;SDS011;3852;52.284;8.032;2022-10-28T10:35:05;10.03;;;3.53;;
7621;SDS011;3852;52.284;8.032;2022-10-28T10:37:42;6.70;;;3.57;;
7621;SDS011;3852;52.284;8.032;2022-10-28T10:40:26;6.07;;;3.60;;
7621;SDS011;3852;52.284;8.032;2022-10-28T10:48:42;10.90;;;4.10;;
7621;SDS011;3852;52.284;8.032;2022-10-28T10:51:11;9.77;;;3.90;;
7621;SDS011;3852;52.284;8.032;2022-10-28T10:53:51;7.93;;;4.03;;
7621;SDS011;3852;52.284;8.032;2022-10-28T10:56:25;9.63;;;3.67;;
7621;SDS011;3852;52.284;8.032;2022-10-28T10:58:54;10.93;;;3.50;;
7621;SDS011;3852;52.284;8.032;2022-10-28T11:01:32;11.23;;;3.83;;
7621;SDS011;3852;52.284;8.032;2022-10-28T11:04:05;10.33;;;3.80;;
7621;SDS011;3852;52.284;8.032;2022-10-28T11:06:33;10.30;;;3.73;;
7621;SDS011;3852;52.284;8.032;2022-10-28T11:09:04;9.27;;;3.60;;
7621;SDS011;3852;52.284;8.032;2022-10-28T11:11:42;7.10;;;3.40;;
7621;SDS011;3852;52.284;8.032;2022-10-28T11:16:45;9.17;;;3.70;;
7621;SDS011;3852;52.284;8.032;2022-10-28T11:21:54;9.53;;;3.80;;
7621;SDS011;3852;52.284;8.032;2022-10-28T11:30:37;10.50;;;3.47;;
7621;SDS011;3852;52.284;8.032;2022-10-28T11:33:44;10.80;;;3.83;;
7621;SDS011;3852;52.284;8.032;2022-10-28T11:39:34;8.10;;;3.80;;
7621;SDS011;3852;52.284;8.032;2022-10-28T11:42:43;11.10;;;4.20;;
7621;SDS011;3852;52.284;8.032;2022-10-28T11:45:31;12.20;;;3.67;;
7621;SDS011;3852;52.284;8.032;2022-10-28T11:48:09;9.77;;;3.13;;
7621;SDS011;3852;52.284;8.032;2022-10-28T12:13:15;11.33;;;3.80;;
7621;SDS011;3852;52.284;8.032;2022-10-28T12:16:45;8.30;;;3.50;;
7621;SDS011;3852;52.284;8.032;2022-10-28T12:19:20;8.93;;;4.20;;
7621;SDS011;3852;52.284;8.032;2022-10-28T12:24:55;11.53;;;4.37;;
7621;SDS011;3852;52.284;8.032;2022-10-28T12:27:27;9.23;;;3.53;;
7621;SDS011;3852;52.284;8.032;2022-10-28T12:30:16;12.33;;;4.17;;
7621;SDS011;3852;52.284;8.032;2022-10-28T12:32:48;8.43;;;3.47;;
7621;SDS011;3852;52.284;8.032;2022-10-28T12:35:31;11.17;;;4.07;;
7621;SDS011;3852;52.284;8.032;2022-10-28T12:40:43;6.60;;;3.60;;
7621;SDS011;3852;52.284;8.032;2022-10-28T12:43:22;7.57;;;4.10;;
7621;SDS011;3852;52.284;8.032;2022-10-28T12:45:57;11.77;;;4.13;;
7621;SDS011;3852;52.284;8.032;2022-10-28T12:48:59;8.17;;;3.73;;
7621;SDS011;3852;52.284;8.032;2022-10-28T12:51:28;8.20;;;4.00;;
7621;SDS011;3852;52.284;8.032;2022-10-28T12:54:14;6.57;;;3.33;;
7621;SDS011;3852;52.284;8.032;2022-10-28T12:56:56;8.40;;;3.67;;
7621;SDS011;3852;52.284;8.032;2022-10-28T12:59:39;12.93;;;3.90;;
7621;SDS011;3852;52.284;8.032;2022-10-28T13:02:15;7.67;;;3.73;;
7621;SDS011;3852;52.284;8.032;2022-10-28T13:04:49;9.63;;;3.80;;
7621;SDS011;3852;52.284;8.032;2022-10-28T13:07:19;7.93;;;3.67;;
7621;SDS011;3852;52.284;8.032;2022-10-28T13:10:04;8.83;;;3.93;;
7621;SDS011;3852;52.284;8.032;2022-10-28T13:15:39;6.87;;;3.40;;
7621;SDS011;3852;52.284;8.032;2022-10-28T13:21:58;11.87;;;3.87;;
7621;SDS011;3852;52.284;8.032;2022-10-28T13:27:45;12.53;;;4.00;;
7621;SDS011;3852;52.284;8.032;2022-10-28T13:30:14;5.17;;;3.27;;
7621;SDS011;3852;52.284;8.032;2022-10-28T13:32:41;9.83;;;4.03;;
7621;SDS011;3852;52.284;8.032;2022-10-28T13:35:29;9.10;;;3.53;;
7621;SDS011;3852;52.284;8.032;2022-10-28T13:37:54;9.17;;;3.43;;
7621;SDS011;3852;52.284;8.032;2022-10-28T13:42:58;12.90;;;3.90;;
7621;SDS011;3852;52.284;8.032;2022-10-28T13:56:10;12.20;;;3.90;;
7621;SDS011;3852;52.284;8.032;2022-10-28T13:59:04;7.50;;;3.50;;
7621;SDS011;3852;52.284;8.032;2022-10-28T14:01:55;11.53;;;3.90;;
7621;SDS011;3852;52.284;8.032;2022-10-28T14:04:33;15.23;;;3.93;;
7621;SDS011;3852;52.284;8.032;2022-10-28T14:07:03;9.73;;;3.80;;
7621;SDS011;3852;52.284;8.032;2022-10-28T14:09:37;11.57;;;3.87;;
7621;SDS011;3852;52.284;8.032;2022-10-28T14:12:20;8.40;;;4.07;;
7621;SDS011;3852;52.284;8.032;2022-10-28T14:14:56;9.13;;;3.83;;
7621;SDS011;3852;52.284;8.032;2022-10-28T14:17:40;6.77;;;3.63;;
7621;SDS011;3852;52.284;8.032;2022-10-28T14:22:56;9.90;;;3.97;;
7621;SDS011;3852;52.284;8.032;2022-10-28T14:33:35;10.93;;;3.37;;
7621;SDS011;3852;52.284;8.032;2022-10-28T14:41:48;6.80;;;3.57;;
7621;SDS011;3852;52.284;8.032;2022-10-28T14:48:10;6.77;;;3.70;;
7621;SDS011;3852;52.284;8.032;2022-10-28T14:50:48;13.77;;;3.90;;
7621;SDS011;3852;52.284;8.032;2022-10-28T14:53:23;10.40;;;4.00;;
7621;SDS011;3852;52.284;8.032;2022-10-28T14:56:00;9.07;;;3.73;;
7621;SDS011;3852;52.284;8.032;2022-10-28T14:58:44;13.67;;;4.00;;
7621;SDS011;3852;52.284;8.032;2022-10-28T15:04:04;11.33;;;3.60;;
7621;SDS011;3852;52.284;8.032;2022-10-28T15:11:55;9.57;;;3.80;;
7621;SDS011;3852;52.284;8.032;2022-10-28T15:14:29;9.73;;;4.27;;
7621;SDS011;3852;52.284;8.032;2022-10-28T15:19:50;16.33;;;10.27;;
7621;SDS011;3852;52.284;8.032;2022-10-28T15:22:20;13.60;;;6.80;;
7621;SDS011;3852;52.284;8.032;2022-10-28T15:27:30;10.20;;;4.03;;
7621;SDS011;3852;52.284;8.032;2022-10-28T15:30:23;7.40;;;3.70;;
7621;SDS011;3852;52.284;8.032;2022-10-28T15:32:53;11.47;;;4.27;;
7621;SDS011;3852;52.284;8.032;2022-10-28T15:35:39;7.77;;;3.57;;
7621;SDS011;3852;52.284;8.032;2022-10-28T15:38:29;9.30;;;3.60;;
7621;SDS011;3852;52.284;8.032;2022-10-28T15:41:02;13.87;;;4.20;;
7621;SDS011;3852;52.284;8.032;2022-10-28T15:44:00;7.10;;;3.80;;
7621;SDS011;3852;52.284;8.032;2022-10-28T15:46:27;11.10;;;3.87;;
7621;SDS011;3852;52.284;8.032;2022-10-28T15:48:56;8.73;;;4.00;;
7621;SDS011;3852;52.284;8.032;2022-10-28T15:51:26;9.57;;;4.27;;
7621;SDS011;3852;52.284;8.032;2022-10-28T15:53:52;9.77;;;3.87;;
7621;SDS011;3852;52.284;8.032;2022-10-28T15:56:33;7.40;;;3.77;;
7621;SDS011;3852;52.284;8.032;2022-10-28T15:59:24;8.67;;;4.00;;
7621;SDS011;3852;52.284;8.032;2022-10-28T16:01:51;10.73;;;3.70;;
7621;SDS011;3852;52.284;8.032;2022-10-28T16:06:50;8.43;;;4.20;;
7621;SDS011;3852;52.284;8.032;2022-10-28T16:09:34;8.80;;;4.03;;
7621;SDS011;3852;52.284;8.032;2022-10-28T16:12:14;10.20;;;4.13;;
7621;SDS011;3852;52.284;8.032;2022-10-28T16:14:47;8.07;;;4.40;;
7621;SDS011;3852;52.284;8.032;2022-10-28T16:17:21;9.53;;;4.30;;
7621;SDS011;3852;52.284;8.032;2022-10-28T16:22:28;10.70;;;3.97;;
7621;SDS011;3852;52.284;8.032;2022-10-28T16:24:55;16.73;;;4.00;;
7621;SDS011;3852;52.284;8.032;2022-10-28T16:29:55;8.30;;;4.20;;
7621;SDS011;3852;52.284;8.032;2022-10-28T16:32:28;9.23;;;3.83;;
7621;SDS011;3852;52.284;8.032;2022-10-28T16:34:58;9.53;;;4.47;;
7621;SDS011;3852;52.284;8.032;2022-10-28T16:37:25;12.00;;;4.03;;
7621;SDS011;3852;52.284;8.032;2022-10-28T16:39:54;14.73;;;4.37;;
7621;SDS011;3852;52.284;8.032;2022-10-28T16:42:21;8.50;;;4.00;;
7621;SDS011;3852;52.284;8.032;2022-10-28T16:44:48;10.30;;;3.90;;
7621;SDS011;3852;52.284;8.032;2022-10-28T16:47:15;11.93;;;4.00;;
7621;SDS011;3852;52.284;8.032;2022-10-28T16:49:44;10.70;;;4.17;;
7621;SDS011;3852;52.284;8.032;2022-10-28T16:52:17;10.07;;;4.53;;
7621;SDS011;3852;52.284;8.032;2022-10-28T16:54:48;10.80;;;4.47;;
7621;SDS011;3852;52.284;8.032;2022-10-28T16:57:15;10.10;;;4.33;;
7621;SDS011;3852;52.284;8.032;2022-10-28T16:59:43;11.47;;;4.17;;
7621;SDS011;3852;52.284;8.032;2022-10-28T17:02:13;7.27;;;4.20;;
7621;SDS011;3852;52.284;8.032;2022-10-28T17:04:52;10.60;;;4.23;;
7621;SDS011;3852;52.284;8.032;2022-10-28T17:07:18;10.23;;;4.53;;
7621;SDS011;3852;52.284;8.032;2022-10-28T17:09:44;10.50;;;4.00;;
7621;SDS011;3852;52.284;8.032;2022-10-28T17:12:11;15.23;;;4.40;;
7621;SDS011;3852;52.284;8.032;2022-10-28T17:14:39;10.50;;;5.10;;
7621;SDS011;3852;52.284;8.032;2022-10-28T17:17:05;11.30;;;4.63;;
7621;SDS011;3852;52.284;8.032;2022-10-28T17:19:31;10.90;;;5.10;;
7621;SDS011;3852;52.284;8.032;2022-10-28T17:21:57;8.50;;;4.30;;
7621;SDS011;3852;52.284;8.032;2022-10-28T17:24:23;12.97;;;4.83;;
7621;SDS011;3852;52.284;8.032;2022-10-28T17:26:50;13.50;;;4.73;;
7621;SDS011;3852;52.284;8.032;2022-10-28T17:29:15;7.87;;;4.03;;
7621;SDS011;3852;52.284;8.032;2022-10-28T17:31:44;11.50;;;4.37;;
7621;SDS011;3852;52.284;8.032;2022-10-28T17:34:10;12.50;;;4.53;;
7621;SDS011;3852;52.284;8.032;2022-10-28T17:36:36;8.67;;;4.17;;
7621;SDS011;3852;52.284;8.032;2022-10-28T17:39:02;12.87;;;4.60;;
7621;SDS011;3852;52.284;8.032;2022-10-28T17:41:30;9.77;;;4.73;;
7621;SDS011;3852;52.284;8.032;2022-10-28T17:43:56;10.43;;;4.40;;
7621;SDS011;3852;52.284;8.032;2022-10-28T17:46:21;10.57;;;4.40;;
7621;SDS011;3852;52.284;8.032;2022-10-28T17:48:47;15.97;;;4.77;;
7621;SDS011;3852;52.284;8.032;2022-10-28T17:51:13;7.77;;;4.20;;
7621;SDS011;3852;52.284;8.032;2022-10-28T17:53:41;11.20;;;4.53;;
7621;SDS011;3852;52.284;8.032;2022-10-28T17:56:07;13.57;;;4.70;;
7621;SDS011;3852;52.284;8.032;2022-10-28T17:58:33;11.00;;;5.10;;
7621;SDS011;3852;52.284;8.032;2022-10-28T18:01:00;19.30;;;4.70;;
7621;SDS011;3852;52.284;8.032;2022-10-28T18:03:29;10.23;;;4.70;;
7621;SDS011;3852;52.284;8.032;2022-10-28T18:06:00;9.90;;;4.47;;
7621;SDS011;3852;52.284;8.032;2022-10-28T18:08:30;7.53;;;4.13;;
7621;SDS011;3852;52.284;8.032;2022-10-28T18:11:01;10.23;;;4.80;;
7621;SDS011;3852;52.284;8.032;2022-10-28T18:13:28;9.93;;;4.60;;
7621;SDS011;3852;52.284;8.032;2022-10-28T18:16:03;12.60;;;4.73;;
7621;SDS011;3852;52.284;8.032;2022-10-28T18:18:35;11.97;;;5.10;;
7621;SDS011;3852;52.284;8.032;2022-10-28T18:21:01;12.73;;;5.13;;
7621;SDS011;3852;52.284;8.032;2022-10-28T18:23:27;8.60;;;4.40;;
7621;SDS011;3852;52.284;8.032;2022-10-28T18:25:57;12.13;;;4.70;;
7621;SDS011;3852;52.284;8.032;2022-10-28T18:28:24;14.07;;;5.20;;
7621;SDS011;3852;52.284;8.032;2022-10-28T18:30:54;11.27;;;4.90;;
7621;SDS011;3852;52.284;8.032;2022-10-28T18:33:20;11.27;;;4.60;;
7621;SDS011;3852;52.284;8.032;2022-10-28T18:35:45;11.20;;;4.80;;
7621;SDS011;3852;52.284;8.032;2022-10-28T18:38:12;9.97;;;4.97;;
7621;SDS011;3852;52.284;8.032;2022-10-28T18:40:44;8.90;;;5.07;;
7621;SDS011;3852;52.284;8.032;2022-10-28T18:43:10;8.40;;;4.40;;
7621;SDS011;3852;52.284;8.032;2022-10-28T18:45:36;9.97;;;4.80;;
7621;SDS011;3852;52.284;8.032;2022-10-28T18:48:02;9.60;;;5.17;;
7621;SDS011;3852;52.284;8.032;2022-10-28T18:50:30;13.50;;;5.20;;